Time;durP1;ratioP1;P1;durP2;ratioP2;P2;SDS_P1;SDS_P2;PMS_P1;PMS_P2;Temp;Humidity;BMP_temperature;BMP_pressure;BME280_temperature;BME280_humidity;BME280_pressure;Samples;Min_cycle;Max_cycle;Signal;HPM_P1;HPM_P2
2023/06/27 00:01:50;;;;;;;;;;;;;;;25.51;47.96;100352.08;109507;1262;67535;-87
2023/06/27 00:04:15;;;;;;;;;;;;;;;25.51;47.77;100344.40;109456;1260;67469;-87
2023/06/27 00:06:41;;;;;;;;;;;;;;;25.51;47.88;100348.52;109521;1260;67532;-87
2023/06/27 00:09:17;;;;;;;;;;;;;;;25.51;48.00;100341.30;109508;1260;67556;-92
2023/06/27 00:11:43;;;;;;;;;;;;;;;25.50;48.05;100335.86;109446;1260;67551;-87
2023/06/27 00:14:09;;;;;;;;;;;;;;;25.50;48.03;100338.08;109362;1260;67682;-87
2023/06/27 00:16:35;;;;;;;;;;;;;;;25.50;48.10;100336.54;109386;1263;67633;-87
2023/06/27 00:19:04;;;;;;;;;;;;;;;25.50;47.99;100334.37;109343;1260;67574;-87
2023/06/27 00:21:33;;;;;;;;;;;;;;;25.49;48.06;100338.61;109411;1260;74510;-87
2023/06/27 00:26:35;;;;;;;;;;;;;;;25.49;47.87;100345.05;109503;1260;67506;-87
2023/06/27 00:29:00;;;;;;;;;;;;;;;25.49;47.89;100339.69;109434;1260;67470;-87
2023/06/27 00:31:26;;;;;;;;;;;;;;;25.50;47.94;100341.17;109546;1260;67615;-87
2023/06/27 00:33:51;;;;;;;;;;;;;;;25.49;47.91;100337.27;109417;1260;67009;-87
2023/06/27 00:36:17;;;;;;;;;;;;;;;25.49;48.08;100339.58;109469;1261;67664;-88
2023/06/27 00:38:42;;;;;;;;;;;;;;;25.48;48.15;100335.23;109304;1260;67588;-87
2023/06/27 00:41:08;;;;;;;;;;;;;;;25.48;47.86;100341.61;109459;1260;67673;-87
2023/06/27 00:43:33;;;;;;;;;;;;;;;25.48;47.99;100341.83;109401;1260;67736;-87
2023/06/27 00:45:59;;;;;;;;;;;;;;;25.48;48.04;100343.67;109437;1260;67462;-87
2023/06/27 00:48:24;;;;;;;;;;;;;;;25.47;47.96;100340.51;109425;1260;67454;-87
2023/06/27 00:50:50;;;;;;;;;;;;;;;25.47;47.85;100338.80;109440;1260;67621;-86
2023/06/27 00:53:24;;;;;;;;;;;;;;;25.47;47.98;100337.21;109417;1260;74291;-87
2023/06/27 00:55:49;;;;;;;;;;;;;;;25.47;47.80;100337.21;109350;1260;67689;-87
2023/06/27 00:58:15;;;;;;;;;;;;;;;25.47;47.98;100338.04;109522;1260;67625;-87
2023/06/27 01:00:40;;;;;;;;;;;;;;;25.46;47.78;100337.69;109360;1260;67499;-87
2023/06/27 01:03:05;;;;;;;;;;;;;;;25.47;47.85;100337.02;109504;1260;67652;-88
2023/06/27 01:05:31;;;;;;;;;;;;;;;25.46;47.78;100336.41;109451;1260;67629;-87
2023/06/27 01:08:01;;;;;;;;;;;;;;;25.46;47.81;100335.53;109243;1260;67530;-87
2023/06/27 01:10:31;;;;;;;;;;;;;;;25.45;47.88;100334.05;109445;1260;67463;-87
2023/06/27 01:13:10;;;;;;;;;;;;;;;25.46;47.66;100341.30;109497;1260;67670;-87
2023/06/27 01:15:35;;;;;;;;;;;;;;;25.45;47.66;100338.58;109357;1260;74204;-87
2023/06/27 01:18:01;;;;;;;;;;;;;;;25.45;47.90;100336.42;109335;1260;66920;-88
2023/06/27 01:20:26;;;;;;;;;;;;;;;25.45;47.98;100334.98;109315;1260;67510;-87
2023/06/27 01:23:15;;;;;;;;;;;;;;;25.45;47.79;100337.11;109221;1261;67770;-87
2023/06/27 01:25:41;;;;;;;;;;;;;;;25.44;47.75;100335.52;109340;1260;67728;-87
2023/06/27 01:28:07;;;;;;;;;;;;;;;25.44;47.78;100333.92;109408;1260;67581;-87
2023/06/27 01:30:35;;;;;;;;;;;;;;;25.44;47.75;100332.90;109507;1260;67614;-87
2023/06/27 01:33:05;;;;;;;;;;;;;;;25.43;47.79;100332.38;109427;1260;67521;-88
2023/06/27 01:36:00;;;;;;;;;;;;;;;25.43;47.74;100330.44;109319;1260;67425;-87
2023/06/27 01:38:32;;;;;;;;;;;;;;;25.43;47.69;100331.27;109493;1260;67642;-87
2023/06/27 01:40:59;;;;;;;;;;;;;;;25.43;47.62;100329.56;109230;1260;75110;-87
2023/06/27 01:43:24;;;;;;;;;;;;;;;25.43;47.68;100326.79;109327;1260;67527;-87
2023/06/27 01:45:49;;;;;;;;;;;;;;;25.43;47.72;100331.21;109332;1260;67577;-87
2023/06/27 01:48:15;;;;;;;;;;;;;;;25.42;47.66;100328.02;109133;1260;283530;-87
2023/06/27 01:50:55;;;;;;;;;;;;;;;25.42;47.76;100326.46;109386;1260;67649;-91
2023/06/27 01:53:21;;;;;;;;;;;;;;;25.42;47.67;100326.61;109287;1266;74251;-87
2023/06/27 01:55:46;;;;;;;;;;;;;;;25.41;47.72;100326.79;109071;1264;67635;-87
2023/06/27 01:58:12;;;;;;;;;;;;;;;25.42;47.45;100326.95;109083;1264;67456;-87
2023/06/27 02:00:38;;;;;;;;;;;;;;;25.41;47.52;100325.31;109121;1264;67618;-87
2023/06/27 02:03:04;;;;;;;;;;;;;;;25.41;47.62;100325.45;109103;1263;67129;-87
2023/06/27 02:05:29;;;;;;;;;;;;;;;25.40;47.57;100322.98;109051;1264;66933;-87
2023/06/27 02:07:55;;;;;;;;;;;;;;;25.40;47.62;100322.43;109026;1264;67493;-87
2023/06/27 02:10:21;;;;;;;;;;;;;;;25.40;47.61;100322.95;109299;1264;67493;-87
2023/06/27 02:12:46;;;;;;;;;;;;;;;25.40;47.48;100317.74;109136;1263;67640;-87
2023/06/27 02:15:12;;;;;;;;;;;;;;;25.40;47.43;100316.02;109254;1263;66995;-87
2023/06/27 02:20:10;;;;;;;;;;;;;;;25.40;47.37;100317.98;109464;1260;67531;-87
2023/06/27 02:22:36;;;;;;;;;;;;;;;25.39;47.40;100313.81;109528;1260;67457;-87
2023/06/27 02:25:01;;;;;;;;;;;;;;;25.39;47.41;100316.90;109344;1260;66964;-87
2023/06/27 02:27:27;;;;;;;;;;;;;;;25.39;47.60;100314.90;109414;1260;67489;-87
2023/06/27 02:29:52;;;;;;;;;;;;;;;25.38;47.43;100317.70;109415;1260;67521;-88
2023/06/27 02:32:18;;;;;;;;;;;;;;;25.38;47.24;100323.92;109320;1260;66941;-87
2023/06/27 02:34:43;;;;;;;;;;;;;;;25.38;47.43;100325.42;109306;1260;67899;-87
2023/06/27 02:37:09;;;;;;;;;;;;;;;25.38;47.44;100326.34;109314;1260;67585;-87
2023/06/27 02:39:34;;;;;;;;;;;;;;;25.38;47.38;100326.98;109372;1260;67789;-87
2023/06/27 02:42:00;;;;;;;;;;;;;;;25.37;47.36;100323.69;109552;1260;66865;-88
2023/06/27 02:44:25;;;;;;;;;;;;;;;25.37;47.34;100326.63;109323;1260;67561;-87
2023/06/27 02:46:59;;;;;;;;;;;;;;;25.36;47.41;100329.73;109366;1260;67762;-87
2023/06/27 02:49:25;;;;;;;;;;;;;;;25.36;47.34;100333.65;109488;1260;66924;-87
2023/06/27 02:51:50;;;;;;;;;;;;;;;25.35;47.35;100331.02;109284;1260;67621;-87
2023/06/27 02:54:16;;;;;;;;;;;;;;;25.34;47.42;100332.45;109513;1260;67507;-87
2023/06/27 02:56:41;;;;;;;;;;;;;;;25.33;47.28;100330.40;109492;1260;67601;-87
2023/06/27 02:59:07;;;;;;;;;;;;;;;25.32;47.35;100326.45;109294;1260;67613;-87
2023/06/27 03:01:32;;;;;;;;;;;;;;;25.30;47.26;100326.65;109520;1260;67047;-87
2023/06/27 03:03:58;;;;;;;;;;;;;;;25.28;47.45;100325.45;109473;1260;67636;-87
2023/06/27 03:06:24;;;;;;;;;;;;;;;25.24;47.35;100324.61;109507;1260;67589;-87
2023/06/27 03:08:49;;;;;;;;;;;;;;;25.19;47.21;100331.03;109536;1260;67531;-87
2023/06/27 03:11:15;;;;;;;;;;;;;;;25.14;47.43;100329.09;109334;1260;66864;-87
2023/06/27 03:13:40;;;;;;;;;;;;;;;25.10;47.20;100325.16;109460;1260;66967;-87
2023/06/27 03:16:06;;;;;;;;;;;;;;;25.03;47.40;100330.37;109451;1260;67570;-87
2023/06/27 03:18:32;;;;;;;;;;;;;;;24.99;47.34;100330.45;109270;1261;67545;-88
2023/06/27 03:20:57;;;;;;;;;;;;;;;24.94;47.40;100332.77;109497;1262;67720;-87
2023/06/27 03:25:57;;;;;;;;;;;;;;;24.85;47.40;100329.98;109509;1260;73822;-87
2023/06/27 03:28:22;;;;;;;;;;;;;;;24.82;47.54;100325.20;109503;1260;67561;-87
2023/06/27 03:30:48;;;;;;;;;;;;;;;24.78;47.45;100328.04;109504;1261;67591;-87
2023/06/27 03:33:13;;;;;;;;;;;;;;;24.75;47.48;100327.30;109423;1260;67027;-88
2023/06/27 03:35:39;;;;;;;;;;;;;;;24.72;47.37;100327.30;109502;1260;67526;-87
2023/06/27 03:38:04;;;;;;;;;;;;;;;24.69;47.54;100331.95;109545;1260;67479;-87
2023/06/27 03:40:30;;;;;;;;;;;;;;;24.67;47.60;100328.23;109414;1260;67510;-87
2023/06/27 03:42:56;;;;;;;;;;;;;;;24.66;47.70;100329.02;109492;1260;67544;-87
2023/06/27 03:45:21;;;;;;;;;;;;;;;24.64;47.67;100329.84;109486;1260;66926;-87
2023/06/27 03:47:47;;;;;;;;;;;;;;;24.63;47.89;100332.98;109386;1260;67481;-87
2023/06/27 03:52:46;;;;;;;;;;;;;;;24.59;47.88;100335.21;109510;1260;67489;-87
2023/06/27 03:55:11;;;;;;;;;;;;;;;24.57;47.90;100333.74;109411;1260;67505;-87
2023/06/27 03:57:37;;;;;;;;;;;;;;;24.56;47.82;100336.30;109504;1260;67484;-87
2023/06/27 04:00:03;;;;;;;;;;;;;;;24.55;47.80;100335.45;109364;1260;67598;-87
2023/06/27 04:02:28;;;;;;;;;;;;;;;24.53;47.88;100339.98;109391;1260;67386;-87
2023/06/27 04:04:54;;;;;;;;;;;;;;;24.52;47.81;100340.27;109338;1260;67464;-87
2023/06/27 04:07:19;;;;;;;;;;;;;;;24.50;47.81;100340.50;109357;1260;67605;-86
2023/06/27 04:09:45;;;;;;;;;;;;;;;24.48;47.73;100338.29;109346;1260;67550;-87
2023/06/27 04:12:10;;;;;;;;;;;;;;;24.47;47.84;100337.32;109381;1260;67543;-87
2023/06/27 04:14:36;;;;;;;;;;;;;;;24.46;48.08;100341.76;109453;1260;67452;-87
2023/06/27 04:17:02;;;;;;;;;;;;;;;24.46;48.14;100341.61;109442;1260;67536;-87
2023/06/27 04:19:27;;;;;;;;;;;;;;;24.45;47.75;100343.97;109394;1260;67657;-87
2023/06/27 04:21:54;;;;;;;;;;;;;;;24.46;48.00;100342.02;109376;1260;67513;-87
2023/06/27 04:24:19;;;;;;;;;;;;;;;24.46;47.92;100345.41;109359;1260;67892;-87
2023/06/27 04:26:45;;;;;;;;;;;;;;;24.45;47.99;100347.13;109462;1260;67550;-87
2023/06/27 04:29:10;;;;;;;;;;;;;;;24.42;47.97;100346.98;109495;1260;67626;-91
2023/06/27 04:31:36;;;;;;;;;;;;;;;24.40;48.11;100351.52;109288;1260;67602;-87
2023/06/27 04:34:02;;;;;;;;;;;;;;;24.40;48.03;100349.92;109457;1260;67572;-87
2023/06/27 04:36:27;;;;;;;;;;;;;;;24.41;48.12;100345.59;109343;1261;67641;-87
2023/06/27 04:38:53;;;;;;;;;;;;;;;24.42;48.22;100349.09;109464;1260;67763;-87
2023/06/27 04:41:18;;;;;;;;;;;;;;;24.43;47.97;100350.92;109384;1263;66902;-87
2023/06/27 04:43:44;;;;;;;;;;;;;;;24.42;48.14;100353.54;109429;1260;67527;-89
2023/06/27 04:46:10;;;;;;;;;;;;;;;24.43;48.21;100359.02;109440;1260;67050;-88
2023/06/27 04:48:35;;;;;;;;;;;;;;;24.43;47.89;100357.39;109319;1260;67433;-88
2023/06/27 04:51:01;;;;;;;;;;;;;;;24.42;48.07;100359.88;109435;1260;67622;-89
2023/06/27 04:53:27;;;;;;;;;;;;;;;24.39;47.94;100362.95;109293;1258;67607;-89
2023/06/27 04:55:53;;;;;;;;;;;;;;;24.38;47.95;100360.45;109591;1260;67459;-90
2023/06/27 04:58:19;;;;;;;;;;;;;;;24.39;47.87;100359.77;109471;1260;75182;-87
2023/06/27 05:00:47;;;;;;;;;;;;;;;24.39;47.78;100361.21;109333;1259;67054;-86
2023/06/27 05:03:14;;;;;;;;;;;;;;;24.40;47.89;100362.27;109509;1260;67484;-87
2023/06/27 05:05:40;;;;;;;;;;;;;;;24.41;47.72;100363.17;109480;1260;67452;-89
2023/06/27 05:08:09;;;;;;;;;;;;;;;24.42;47.65;100365.42;109482;1260;67572;-91
2023/06/27 05:10:35;;;;;;;;;;;;;;;24.45;47.73;100372.05;109466;1260;73402;-86
2023/06/27 05:13:00;;;;;;;;;;;;;;;24.47;47.69;100369.57;109671;1260;66960;-88
2023/06/27 05:15:26;;;;;;;;;;;;;;;24.48;47.89;100371.09;109451;1260;67683;-87
2023/06/27 05:20:31;;;;;;;;;;;;;;;24.54;47.70;100374.64;109581;1260;67029;-87
2023/06/27 05:25:39;;;;;;;;;;;;;;;24.57;47.87;100380.75;109231;1263;67701;-88
2023/06/27 05:28:05;;;;;;;;;;;;;;;24.59;47.84;100377.23;109234;1263;66948;-90
2023/06/27 05:30:31;;;;;;;;;;;;;;;24.61;47.96;100381.79;109324;1264;67787;-88
2023/06/27 05:33:03;;;;;;;;;;;;;;;24.62;48.13;100382.84;109263;1264;67578;-90
2023/06/27 05:35:28;;;;;;;;;;;;;;;24.64;48.10;100383.58;109257;1263;74012;-89
2023/06/27 05:38:03;;;;;;;;;;;;;;;24.66;48.11;100382.83;109008;1263;67695;-91
2023/06/27 05:40:34;;;;;;;;;;;;;;;24.69;48.07;100384.64;109278;1263;66990;-91
2023/06/27 05:45:38;;;;;;;;;;;;;;;24.74;48.10;100384.54;109605;1261;67675;-92
2023/06/27 05:56:33;;;;;;;;;;;;;;;24.82;48.21;100381.92;109462;1263;66120;-91
2023/06/27 05:59:01;;;;;;;;;;;;;;;24.83;48.20;100385.23;109032;1264;559403;-89
2023/06/27 06:05:23;;;;;;;;;;;;;;;24.87;48.37;100381.52;108646;1260;555188;-88
2023/06/27 06:25:07;;;;;;;;;;;;;;;24.97;48.35;100381.80;108655;1263;560694;-89
2023/06/27 06:27:32;;;;;;;;;;;;;;;24.98;48.28;100385.86;109189;1264;67001;-90
2023/06/27 06:29:58;;;;;;;;;;;;;;;24.99;48.42;100385.42;109018;1264;67533;-86
2023/06/27 06:32:23;;;;;;;;;;;;;;;25.00;48.32;100381.40;109285;1263;67665;-88
2023/06/27 06:34:52;;;;;;;;;;;;;;;25.01;48.52;100377.52;109089;1263;66935;-91
2023/06/27 06:37:49;;;;;;;;;;;;;;;25.02;48.44;100374.83;109319;1262;67633;-91
2023/06/27 06:40:17;;;;;;;;;;;;;;;25.03;48.34;100376.05;109134;1262;66892;-87
2023/06/27 06:42:43;;;;;;;;;;;;;;;25.04;48.38;100379.11;109324;1262;67063;-88
2023/06/27 06:56:42;;;;;;;;;;;;;;;25.09;48.04;100370.46;109244;1260;559746;31
2023/06/27 07:02:17;;;;;;;;;;;;;;;25.12;48.22;100375.56;109061;1262;554791;-88
2023/06/27 07:04:49;;;;;;;;;;;;;;;25.12;48.22;100369.39;109378;1263;67789;-89
2023/06/27 07:47:49;;;;;;;;;;;;;;;25.30;47.89;100363.58;108436;1263;555942;-90
2023/06/27 07:50:18;;;;;;;;;;;;;;;25.30;47.98;100360.08;109297;1260;74632;-90
2023/06/27 07:52:48;;;;;;;;;;;;;;;25.32;47.96;100363.80;109490;1260;67055;-88
2023/06/27 07:57:57;;;;;;;;;;;;;;;25.33;47.80;100367.89;108658;1260;558902;-92
2023/06/27 08:00:24;;;;;;;;;;;;;;;25.34;47.85;100369.69;109626;1260;67411;-89
2023/06/27 08:02:52;;;;;;;;;;;;;;;25.34;47.61;100370.55;109309;1263;67476;-90
2023/06/27 08:08:08;;;;;;;;;;;;;;;25.35;47.37;100362.25;109467;1260;67202;-88
2023/06/27 08:22:30;;;;;;;;;;;;;;;25.43;46.70;100365.61;109080;1261;554886;-91
2023/06/27 08:27:37;;;;;;;;;;;;;;;25.46;46.41;100361.22;108279;1260;560264;-93
2023/06/27 08:41:52;;;;;;;;;;;;;;;25.59;45.43;100357.98;109657;1260;66903;31
2023/06/27 08:44:20;;;;;;;;;;;;;;;25.62;45.35;100353.74;109473;1263;67010;-90
2023/06/27 08:46:48;;;;;;;;;;;;;;;25.63;45.30;100351.13;109317;1263;67562;-88
2023/06/27 08:49:33;;;;;;;;;;;;;;;25.65;45.07;100354.29;109355;1263;67583;-92
2023/06/27 08:52:05;;;;;;;;;;;;;;;25.68;45.07;100350.27;109510;1263;67575;-90
2023/06/27 09:00:26;;;;;;;;;;;;;;;25.73;44.33;100342.02;109203;1262;555275;-89
2023/06/27 09:03:19;;;;;;;;;;;;;;;25.75;44.34;100337.36;109000;1261;561412;-92
2023/06/27 09:14:25;;;;;;;;;;;;;;;25.80;43.95;100335.52;109411;1264;73180;-88
2023/06/27 09:16:51;;;;;;;;;;;;;;;25.81;43.87;100334.81;109202;1260;67807;-87
2023/06/27 09:19:17;;;;;;;;;;;;;;;25.83;43.87;100332.83;109374;1260;67882;-87
2023/06/27 09:21:45;;;;;;;;;;;;;;;25.84;43.99;100325.73;109438;1260;67555;-88
2023/06/27 09:24:16;;;;;;;;;;;;;;;25.85;43.73;100325.41;109392;1260;67574;-88
2023/06/27 09:26:42;;;;;;;;;;;;;;;25.87;43.72;100327.80;109515;1260;74872;-89
2023/06/27 09:29:08;;;;;;;;;;;;;;;25.88;43.60;100327.36;109449;1260;67658;-88
2023/06/27 09:31:34;;;;;;;;;;;;;;;25.88;43.44;100327.70;109301;1260;67608;-89
2023/06/27 09:36:42;;;;;;;;;;;;;;;25.89;43.39;100328.66;109501;1262;66909;-88
2023/06/27 09:39:09;;;;;;;;;;;;;;;25.89;43.40;100325.41;109196;1263;68023;-87
2023/06/27 09:41:47;;;;;;;;;;;;;;;25.90;43.45;100330.17;109419;1261;67540;-88
2023/06/27 09:44:13;;;;;;;;;;;;;;;25.91;43.18;100327.58;109321;1262;67338;-87
2023/06/27 09:46:40;;;;;;;;;;;;;;;25.93;43.20;100328.10;109376;1263;67429;-89
2023/06/27 09:49:25;;;;;;;;;;;;;;;25.94;43.11;100328.08;109642;1261;67702;31
2023/06/27 09:51:50;;;;;;;;;;;;;;;25.95;43.08;100324.16;109245;1264;74337;-89
2023/06/27 09:54:22;;;;;;;;;;;;;;;25.96;43.07;100324.13;108756;1260;561606;-89
2023/06/27 09:56:51;;;;;;;;;;;;;;;25.98;43.06;100323.16;108756;1260;555829;-89
2023/06/27 09:59:26;;;;;;;;;;;;;;;26.01;42.89;100318.20;108656;1262;561608;-86
2023/06/27 10:01:53;;;;;;;;;;;;;;;26.03;42.75;100317.87;109409;1259;67651;-90
2023/06/27 10:04:19;;;;;;;;;;;;;;;26.05;42.82;100316.23;109435;1259;74226;-90
2023/06/27 10:12:23;;;;;;;;;;;;;;;26.09;42.60;100310.77;109540;1260;67507;-90
2023/06/27 10:14:50;;;;;;;;;;;;;;;26.11;42.53;100307.34;109514;1261;67557;-89
2023/06/27 10:17:18;;;;;;;;;;;;;;;26.14;42.43;100312.45;109578;1260;67851;-89
2023/06/27 10:19:45;;;;;;;;;;;;;;;26.15;42.39;100314.02;109518;1260;67570;-88
2023/06/27 10:22:10;;;;;;;;;;;;;;;26.17;42.49;100311.95;109563;1260;67189;-88
2023/06/27 10:24:38;;;;;;;;;;;;;;;26.19;42.42;100306.03;109629;1260;67945;-88
2023/06/27 10:27:07;;;;;;;;;;;;;;;26.21;42.35;100298.98;109502;1260;67328;-88
2023/06/27 10:29:32;;;;;;;;;;;;;;;26.21;42.44;100289.95;109450;1260;74089;-86
2023/06/27 10:31:57;;;;;;;;;;;;;;;26.21;42.24;100287.00;109389;1260;66996;-86
2023/06/27 10:34:28;;;;;;;;;;;;;;;26.22;42.20;100292.45;109489;1260;67565;-86
2023/06/27 10:37:00;;;;;;;;;;;;;;;26.23;42.14;100292.31;109424;1260;66958;-91
2023/06/27 10:39:29;;;;;;;;;;;;;;;26.24;42.17;100287.09;109366;1260;66966;-86
2023/06/27 10:41:58;;;;;;;;;;;;;;;26.24;42.13;100281.69;109407;1260;73184;-86
2023/06/27 10:44:24;;;;;;;;;;;;;;;26.24;42.05;100277.93;109344;1260;67500;-86
2023/06/27 10:46:52;;;;;;;;;;;;;;;26.26;41.91;100275.11;109458;1260;67694;-86
2023/06/27 10:49:18;;;;;;;;;;;;;;;26.29;41.90;100273.81;109313;1260;67546;-86
2023/06/27 10:54:20;;;;;;;;;;;;;;;26.34;41.92;100276.89;109568;1260;74456;-87
2023/06/27 10:56:46;;;;;;;;;;;;;;;26.36;41.87;100273.54;109350;1260;67591;-88
2023/06/27 10:59:13;;;;;;;;;;;;;;;26.38;41.85;100271.51;109485;1260;67536;-87
2023/06/27 11:01:43;;;;;;;;;;;;;;;26.40;41.69;100269.90;109453;1260;67470;-88
2023/06/27 11:04:15;;;;;;;;;;;;;;;26.43;41.52;100264.02;109523;1260;67789;-88
2023/06/27 11:09:21;;;;;;;;;;;;;;;26.44;41.33;100260.39;109256;1264;67956;-86
2023/06/27 11:12:07;;;;;;;;;;;;;;;26.44;41.38;100258.84;109206;1263;67578;-87
2023/06/27 11:14:34;;;;;;;;;;;;;;;26.46;41.46;100259.88;109359;1264;67093;-87
2023/06/27 11:17:00;;;;;;;;;;;;;;;26.47;41.27;100260.87;109230;1264;66857;-86
2023/06/27 11:19:25;;;;;;;;;;;;;;;26.48;41.12;100256.60;109249;1262;67522;-87
2023/06/27 11:21:51;;;;;;;;;;;;;;;26.49;41.23;100248.16;109244;1264;67418;-87
2023/06/27 11:24:17;;;;;;;;;;;;;;;26.50;41.09;100252.90;109209;1262;67604;-87
2023/06/27 11:26:51;;;;;;;;;;;;;;;26.50;41.12;100248.55;109352;1266;66865;-86
2023/06/27 11:29:16;;;;;;;;;;;;;;;26.52;41.17;100238.39;109279;1262;74351;-86
2023/06/27 11:31:42;;;;;;;;;;;;;;;26.54;41.17;100238.98;109241;1263;67484;-87
2023/06/27 11:34:07;;;;;;;;;;;;;;;26.53;41.19;100239.73;109276;1263;67441;-87
2023/06/27 11:39:09;;;;;;;;;;;;;;;26.52;41.02;100227.77;109482;1260;67620;-86
2023/06/27 11:41:37;;;;;;;;;;;;;;;26.53;40.98;100229.42;109428;1260;73830;-86
2023/06/27 11:44:03;;;;;;;;;;;;;;;26.56;40.96;100225.02;109309;1260;66935;-85
2023/06/27 11:46:29;;;;;;;;;;;;;;;26.60;40.89;100218.27;109307;1260;66967;-86
2023/06/27 11:48:55;;;;;;;;;;;;;;;26.61;40.90;100225.09;109495;1260;67517;-87
2023/06/27 11:51:20;;;;;;;;;;;;;;;26.61;40.91;100221.27;109457;1260;66922;-85
2023/06/27 11:53:50;;;;;;;;;;;;;;;26.62;40.82;100215.34;109342;1260;67539;-86
2023/06/27 11:56:15;;;;;;;;;;;;;;;26.61;41.00;100212.86;109491;1260;67509;-85
2023/06/27 11:58:41;;;;;;;;;;;;;;;26.61;40.84;100212.41;109491;1260;67508;-85
2023/06/27 12:01:13;;;;;;;;;;;;;;;26.61;40.97;100210.02;109543;1260;67760;-86
2023/06/27 12:03:41;;;;;;;;;;;;;;;26.62;41.02;100205.38;109559;1260;67011;-91
2023/06/27 12:06:06;;;;;;;;;;;;;;;26.61;40.94;100200.94;109495;1260;74237;-86
2023/06/27 12:08:32;;;;;;;;;;;;;;;26.62;40.96;100203.00;109461;1260;68042;-85
2023/06/27 12:11:00;;;;;;;;;;;;;;;26.61;41.00;100198.26;109268;1260;67094;-85
2023/06/27 12:13:37;;;;;;;;;;;;;;;26.63;41.06;100195.70;109454;1260;67722;-86
2023/06/27 12:16:05;;;;;;;;;;;;;;;26.63;41.00;100190.81;109382;1260;66914;-85
2023/06/27 12:18:40;;;;;;;;;;;;;;;26.63;41.07;100181.29;109497;1260;75699;-90
2023/06/27 12:21:05;;;;;;;;;;;;;;;26.62;41.08;100185.17;109497;1260;66885;-85
2023/06/27 12:23:31;;;;;;;;;;;;;;;26.63;40.98;100188.17;109354;1260;66884;-85
2023/06/27 12:25:56;;;;;;;;;;;;;;;26.63;41.06;100190.02;109481;1260;67458;-85
2023/06/27 12:28:22;;;;;;;;;;;;;;;26.62;41.06;100186.42;109318;1260;67526;-85
2023/06/27 12:30:48;;;;;;;;;;;;;;;26.62;40.88;100184.16;109345;1262;67605;-85
2023/06/27 12:33:13;;;;;;;;;;;;;;;26.62;40.94;100181.31;109307;1261;67011;-86
2023/06/27 12:35:39;;;;;;;;;;;;;;;26.62;40.97;100171.92;109281;1261;67245;-85
2023/06/27 12:38:05;;;;;;;;;;;;;;;26.62;41.00;100173.94;109278;1261;67687;-85
2023/06/27 12:40:31;;;;;;;;;;;;;;;26.61;40.85;100175.41;109318;1261;66977;-86
2023/06/27 12:42:57;;;;;;;;;;;;;;;26.59;40.79;100165.98;109506;1261;67549;-87
2023/06/27 12:45:23;;;;;;;;;;;;;;;26.59;41.00;100165.63;109306;1261;67539;-90
2023/06/27 12:47:50;;;;;;;;;;;;;;;26.58;40.92;100165.97;109335;1260;66902;-88
2023/06/27 12:50:19;;;;;;;;;;;;;;;26.57;40.68;100161.95;109299;1261;67570;-88
2023/06/27 12:52:48;;;;;;;;;;;;;;;26.56;40.70;100163.30;109325;1261;67432;-87
2023/06/27 12:57:59;;;;;;;;;;;;;;;26.57;40.67;100150.95;109352;1262;66884;-88
2023/06/27 13:00:47;;;;;;;;;;;;;;;26.59;40.73;100147.79;109245;1262;67494;31
2023/06/27 13:05:46;;;;;;;;;;;;;;;26.59;40.52;100149.38;109453;1263;68506;-89
2023/06/27 13:08:13;;;;;;;;;;;;;;;26.59;40.57;100144.27;109547;1263;67480;-90
2023/06/27 13:10:41;;;;;;;;;;;;;;;26.59;40.59;100143.13;109517;1261;67698;-89
2023/06/27 13:13:07;;;;;;;;;;;;;;;26.59;40.49;100143.95;109538;1261;67756;-88
2023/06/27 13:20:56;;;;;;;;;;;;;;;26.62;40.50;100132.39;109532;1261;66839;-88
2023/06/27 13:23:21;;;;;;;;;;;;;;;26.63;40.44;100127.92;109319;1263;67511;-88
2023/06/27 13:25:51;;;;;;;;;;;;;;;26.64;40.62;100123.09;109564;1262;66861;-88
2023/06/27 13:28:16;;;;;;;;;;;;;;;26.66;40.43;100123.83;109477;1261;73994;-88
2023/06/27 13:30:42;;;;;;;;;;;;;;;26.67;40.37;100118.79;109549;1265;67606;-87
2023/06/27 13:35:43;;;;;;;;;;;;;;;26.69;40.42;100109.30;109550;1261;66812;-90
2023/06/27 13:40:43;;;;;;;;;;;;;;;26.73;40.28;100111.66;109550;1261;74331;-89
2023/06/27 13:43:42;;;;;;;;;;;;;;;26.74;40.20;100107.65;109445;1262;68172;-88
2023/06/27 13:46:08;;;;;;;;;;;;;;;26.74;40.13;100104.39;109512;1261;67422;-89
2023/06/27 13:49:01;;;;;;;;;;;;;;;;;;;;;
2023/06/27 13:55:18;;;;;;;;;;;;;;;;;;;;;
2023/06/27 13:58:21;;;;;;;;;;;;;;;26.77;40.03;100093.36;109139;1260;555557;-89
2023/06/27 14:03:48;;;;;;;;;;;;;;;26.79;39.93;100083.70;109295;1260;554904;-88
2023/06/27 14:06:52;;;;;;;;;;;;;;;26.78;39.93;100079.58;109701;1264;67548;31
2023/06/27 14:27:47;;;;;;;;;;;;;;;26.79;39.86;100049.80;109429;1262;68315;-88
2023/06/27 14:33:44;;;;;;;;;;;;;;;26.81;39.77;100051.20;109490;1263;66202;-88
2023/06/27 14:36:40;;;;;;;;;;;;;;;26.82;39.70;100051.73;109537;1260;68613;-89
2023/06/27 14:42:54;;;;;;;;;;;;;;;;;;;;;
2023/06/27 15:03:17;;;;;;;;;;;;;;;26.83;39.36;100037.65;109609;1258;67400;-89
2023/06/27 15:05:43;;;;;;;;;;;;;;;26.84;39.24;100042.35;109415;1261;67453;-89
2023/06/27 15:17:32;;;;;;;;;;;;;;;26.79;39.32;100027.70;109557;1262;65897;-91
2023/06/27 15:45:21;;;;;;;;;;;;;;;26.63;39.81;100013.50;109531;1262;66092;-87
2023/06/27 15:48:20;;;;;;;;;;;;;;;26.61;39.97;100009.64;109182;1260;557966;-91
2023/06/27 16:02:10;;;;;;;;;;;;;;;26.57;40.37;100010.73;109498;1262;66128;-89
2023/06/27 16:07:13;;;;;;;;;;;;;;;26.56;40.39;100007.55;109026;1262;555168;-89
2023/06/27 16:18:19;;;;;;;;;;;;;;;26.53;40.68;100009.54;109087;1262;554955;-89
2023/06/27 16:27:22;;;;;;;;;;;;;;;26.51;40.84;100007.02;109532;1261;67694;-89
2023/06/27 16:39:27;;;;;;;;;;;;;;;26.46;40.89;100002.18;109515;1265;65559;-89
2023/06/27 16:45:23;;;;;;;;;;;;;;;;;;;;;
2023/06/27 17:06:30;;;;;;;;;;;;;;;26.39;41.02;100013.73;109656;1260;65762;-89
2023/06/27 17:29:57;;;;;;;;;;;;;;;;;;;;;
2023/06/27 17:32:26;;;;;;;;;;;;;;;26.40;41.11;100022.05;109606;1260;74575;-90
2023/06/27 17:35:09;;;;;;;;;;;;;;;26.40;40.98;100021.60;109420;1263;73797;-90
2023/06/27 17:46:06;;;;;;;;;;;;;;;26.42;41.14;100023.20;109484;1262;74274;-89
2023/06/27 17:54:46;;;;;;;;;;;;;;;26.40;41.29;100015.66;109588;1260;67738;-89
2023/06/27 18:07:16;;;;;;;;;;;;;;;;;;;;;
2023/06/27 18:12:46;;;;;;;;;;;;;;;26.39;41.12;100015.66;109366;1262;65993;-89
2023/06/27 18:15:22;;;;;;;;;;;;;;;26.39;41.17;100024.88;109425;1260;83283;-89
2023/06/27 18:21:29;;;;;;;;;;;;;;;26.38;41.24;100027.95;109463;1262;67360;-88
2023/06/27 18:34:04;;;;;;;;;;;;;;;26.35;40.98;100040.08;109013;1263;529131;-91
2023/06/27 18:45:15;;;;;;;;;;;;;;;;;;;;;
2023/06/27 19:01:47;;;;;;;;;;;;;;;26.26;41.07;100083.93;109368;1262;67591;-89
2023/06/27 19:04:32;;;;;;;;;;;;;;;26.25;41.18;100083.86;109366;1261;66950;-89
2023/06/27 19:19:05;;;;;;;;;;;;;;;26.23;41.09;100086.32;109461;1260;67574;-89
2023/06/27 19:24:54;;;;;;;;;;;;;;;26.21;40.88;100084.23;109484;1262;67498;-89
2023/06/27 19:41:36;;;;;;;;;;;;;;;26.20;41.15;100079.23;109495;1262;73885;-89
2023/06/27 19:48:06;;;;;;;;;;;;;;;;;;;;;
2023/06/27 20:31:43;;;;;;;;;;;;;;;;;;;;;
2023/06/27 20:34:41;;;;;;;;;;;;;;;;;;;;;
2023/06/27 20:37:27;;;;;;;;;;;;;;;26.13;41.30;100069.73;109631;1260;67514;-89
2023/06/27 20:40:26;;;;;;;;;;;;;;;26.13;41.42;100068.02;109313;1263;74374;-89
2023/06/27 20:43:20;;;;;;;;;;;;;;;;;;;;;
2023/06/27 21:06:15;;;;;;;;;;;;;;;26.10;41.36;100061.56;109370;1262;67556;-89
2023/06/27 21:08:47;;;;;;;;;;;;;;;26.09;41.58;100061.90;109452;1260;73733;-89
2023/06/27 21:14:19;;;;;;;;;;;;;;;26.10;41.51;100064.73;108657;1260;555831;-91
2023/06/27 21:28:00;;;;;;;;;;;;;;;26.08;41.49;100065.17;109516;1260;67796;-89
2023/06/27 21:33:21;;;;;;;;;;;;;;;26.08;41.61;100064.84;109478;1260;67332;-89